createdAt,value
2022-11-10T00:00:27.231Z,26.56
2022-11-10T00:01:29.112Z,26.39
2022-11-10T00:02:30.896Z,25.43
2022-11-10T00:03:32.705Z,26.86
2022-11-10T00:04:34.538Z,28.37
2022-11-10T00:05:36.391Z,30.98
2022-11-10T00:06:38.276Z,36.36
2022-11-10T00:07:40.033Z,40.77
2022-11-10T00:08:41.863Z,39.81
2022-11-10T00:09:43.782Z,37.58
2022-11-10T00:10:45.582Z,34.20
2022-11-10T00:11:47.418Z,30.96
2022-11-10T00:12:49.197Z,27.63
2022-11-10T00:13:50.996Z,31.64
2022-11-10T00:14:52.796Z,27.15
2022-11-10T00:15:54.615Z,29.49
2022-11-10T00:16:56.444Z,29.96
2022-11-10T00:17:58.243Z,28.95
2022-11-10T00:19:00.049Z,32.62
2022-11-10T00:20:01.872Z,26.77
2022-11-10T00:21:03.650Z,28.14
2022-11-10T00:22:05.476Z,24.49
2022-11-10T00:23:07.263Z,25.13
2022-11-10T00:24:09.086Z,26.51
2022-11-10T00:25:10.885Z,24.05
2022-11-10T00:26:12.695Z,24.87
2022-11-10T00:27:14.529Z,27.65
2022-11-10T00:28:16.321Z,26.13
2022-11-10T00:29:18.125Z,24.75
2022-11-10T00:30:19.937Z,25.34
2022-11-10T00:31:21.739Z,27.74
2022-11-10T00:32:23.562Z,26.33
2022-11-10T00:33:25.372Z,25.07
2022-11-10T00:34:27.177Z,23.61
2022-11-10T00:35:28.962Z,24.09
2022-11-10T00:36:30.771Z,27.10
2022-11-10T00:37:32.598Z,24.29
2022-11-10T00:38:34.488Z,25.39
2022-11-10T00:39:36.497Z,26.14
2022-11-10T00:40:38.290Z,23.44
2022-11-10T00:41:40.104Z,26.87
2022-11-10T00:42:41.942Z,26.32
2022-11-10T00:43:43.762Z,26.18
2022-11-10T00:44:45.555Z,28.16
2022-11-10T00:45:47.361Z,26.14
2022-11-10T00:46:49.157Z,23.98
2022-11-10T00:47:51.031Z,27.83
2022-11-10T00:48:52.827Z,28.63
2022-11-10T00:49:54.632Z,28.12
2022-11-10T00:50:56.439Z,27.13
2022-11-10T00:51:58.216Z,26.64
2022-11-10T00:53:00.066Z,27.40
2022-11-10T00:54:01.863Z,26.71
2022-11-10T00:55:04.001Z,25.26
2022-11-10T00:56:05.901Z,26.09
2022-11-10T00:57:07.691Z,26.37
2022-11-10T00:58:09.637Z,27.37
2022-11-10T00:59:11.429Z,23.98
2022-11-10T01:00:14.060Z,24.40
2022-11-10T01:01:15.900Z,24.59
2022-11-10T01:02:17.683Z,26.49
2022-11-10T01:03:19.966Z,23.96
2022-11-10T01:04:21.921Z,26.09
2022-11-10T01:05:23.699Z,22.54
2022-11-10T01:06:25.493Z,25.77
2022-11-10T01:07:27.289Z,24.36
2022-11-10T01:08:29.142Z,25.01
2022-11-10T01:09:30.956Z,24.69
2022-11-10T01:10:32.862Z,26.00
2022-11-10T01:11:34.662Z,25.35
2022-11-10T01:12:36.481Z,25.35
2022-11-10T01:13:38.352Z,26.26
2022-11-10T01:14:40.166Z,27.24
2022-11-10T01:15:41.961Z,25.37
2022-11-10T01:16:43.744Z,24.75
2022-11-10T01:17:45.543Z,25.06
2022-11-10T01:18:49.296Z,25.62
2022-11-10T01:19:50.998Z,26.10
2022-11-10T01:20:52.781Z,26.73
2022-11-10T01:21:54.593Z,25.61
2022-11-10T01:22:56.401Z,27.25
2022-11-10T01:23:58.251Z,27.29
2022-11-10T01:25:00.047Z,25.16
2022-11-10T01:26:01.935Z,25.97
2022-11-10T01:27:03.750Z,25.63
2022-11-10T01:28:05.562Z,23.55
2022-11-10T01:29:07.395Z,21.91
2022-11-10T01:30:09.603Z,22.90
2022-11-10T01:31:11.411Z,22.79
2022-11-10T01:32:13.198Z,30.79
2022-11-10T01:33:15.006Z,23.69
2022-11-10T01:34:16.845Z,24.06
2022-11-10T01:35:18.678Z,23.59
2022-11-10T01:36:20.583Z,24.63
2022-11-10T01:37:22.379Z,23.61
2022-11-10T01:38:24.164Z,31.01
2022-11-10T01:39:25.998Z,27.23
2022-11-10T01:40:27.874Z,26.23
2022-11-10T01:41:29.667Z,23.24
2022-11-10T01:42:31.474Z,26.44
2022-11-10T01:43:33.271Z,25.76
2022-11-10T01:44:35.128Z,25.95
2022-11-10T01:45:36.937Z,24.99
2022-11-10T01:46:38.742Z,24.29
2022-11-10T01:47:40.527Z,29.37
2022-11-10T01:48:42.343Z,27.85
2022-11-10T01:49:44.173Z,28.90
2022-11-10T01:50:46.076Z,25.94
2022-11-10T01:51:47.876Z,30.42
2022-11-10T01:52:49.665Z,26.92
2022-11-10T01:53:51.461Z,27.31
2022-11-10T01:54:53.335Z,25.55
2022-11-10T01:55:55.146Z,27.04
2022-11-10T01:56:56.946Z,25.85
2022-11-10T01:57:58.776Z,26.69
2022-11-10T01:59:00.592Z,25.04
2022-11-10T02:00:02.458Z,25.73
2022-11-10T02:01:04.325Z,26.43
2022-11-10T02:02:06.165Z,27.32
2022-11-10T02:03:07.961Z,23.89
2022-11-10T02:04:09.779Z,25.27
2022-11-10T02:05:11.635Z,25.62
2022-11-10T02:06:13.934Z,23.67
2022-11-10T02:07:15.766Z,27.51
2022-11-10T02:08:17.505Z,23.84
2022-11-10T02:09:19.302Z,22.73
2022-11-10T02:10:21.160Z,24.65
2022-11-10T02:11:22.983Z,21.85
2022-11-10T02:12:24.817Z,24.52
2022-11-10T02:13:26.609Z,28.21
2022-11-10T02:14:28.400Z,22.57
2022-11-10T02:15:30.261Z,25.69
2022-11-10T02:16:32.067Z,22.53
2022-11-10T02:17:33.844Z,24.56
2022-11-10T02:18:35.662Z,22.36
2022-11-10T02:19:37.443Z,22.69
2022-11-10T02:20:39.299Z,23.41
2022-11-10T02:21:41.118Z,21.40
2022-11-10T02:22:42.927Z,22.23
2022-11-10T02:23:44.730Z,24.09
2022-11-10T02:24:46.556Z,24.14
2022-11-10T02:25:48.414Z,24.37
2022-11-10T02:26:50.300Z,24.90
2022-11-10T02:27:52.223Z,24.41
2022-11-10T02:28:53.998Z,24.74
2022-11-10T02:29:55.819Z,27.79
2022-11-10T02:30:57.660Z,26.54
2022-11-10T02:31:59.478Z,27.63
2022-11-10T02:33:01.284Z,30.08
2022-11-10T02:34:03.098Z,26.89
2022-11-10T02:35:04.934Z,27.75
2022-11-10T02:36:06.979Z,25.65
2022-11-10T02:37:08.782Z,26.93
2022-11-10T02:38:10.593Z,27.83
2022-11-10T02:39:12.384Z,27.10
2022-11-10T02:40:14.891Z,29.20
2022-11-10T02:41:16.744Z,33.29
2022-11-10T02:42:18.505Z,32.21
2022-11-10T02:43:20.874Z,27.03
2022-11-10T02:44:22.824Z,26.62
2022-11-10T02:45:24.639Z,27.55
2022-11-10T02:46:26.488Z,30.65
2022-11-10T02:47:28.309Z,32.12
2022-11-10T02:48:30.092Z,30.86
2022-11-10T02:49:31.877Z,29.75
2022-11-10T02:50:33.686Z,28.97
2022-11-10T02:51:35.521Z,29.56
2022-11-10T02:52:37.339Z,29.76
2022-11-10T02:53:39.124Z,27.68
2022-11-10T02:54:40.906Z,31.18
2022-11-10T02:55:42.728Z,32.01
2022-11-10T02:56:44.892Z,34.43
2022-11-10T02:57:46.697Z,33.06
2022-11-10T02:58:48.616Z,34.69
2022-11-10T02:59:50.427Z,32.19
2022-11-10T03:00:52.284Z,29.61
2022-11-10T03:01:54.174Z,34.11
2022-11-10T03:02:55.984Z,29.81
2022-11-10T03:03:57.798Z,27.61
2022-11-10T03:04:59.601Z,32.00
2022-11-10T03:06:01.588Z,28.25
2022-11-10T03:07:03.521Z,28.31
2022-11-10T03:08:05.242Z,31.28
2022-11-10T03:09:07.055Z,28.63
2022-11-10T03:10:09.161Z,28.90
2022-11-10T03:11:10.959Z,27.29
2022-11-10T03:12:12.802Z,26.34
2022-11-10T03:13:14.603Z,29.75
2022-11-10T03:14:16.607Z,31.47
2022-11-10T03:15:18.407Z,30.00
2022-11-10T03:16:20.325Z,28.12
2022-11-10T03:17:22.164Z,24.72
2022-11-10T03:18:23.969Z,26.20
2022-11-10T03:19:25.778Z,27.27
2022-11-10T03:20:27.594Z,27.19
2022-11-10T03:21:31.195Z,25.61
2022-11-10T03:22:33.019Z,27.96
2022-11-10T03:23:34.833Z,24.54
2022-11-10T03:24:36.615Z,25.11
2022-11-10T03:25:38.435Z,24.83
2022-11-10T03:26:40.255Z,24.37
2022-11-10T03:27:42.090Z,28.24
2022-11-10T03:28:43.913Z,26.13
2022-11-10T03:29:45.809Z,27.10
2022-11-10T03:30:47.611Z,27.17
2022-11-10T03:31:49.413Z,28.36
2022-11-10T03:32:51.234Z,27.68
2022-11-10T03:33:53.050Z,25.67
2022-11-10T03:34:54.857Z,24.84
2022-11-10T03:35:56.662Z,25.54
2022-11-10T03:36:58.461Z,28.04
2022-11-10T03:38:00.319Z,29.64
2022-11-10T03:39:02.121Z,35.04
2022-11-10T03:40:03.918Z,31.98
2022-11-10T03:41:19.431Z,33.92
2022-11-10T03:42:09.343Z,34.31
2022-11-10T03:43:11.169Z,38.62
2022-11-10T03:44:12.984Z,46.80
2022-11-10T03:45:14.897Z,47.60
2022-11-10T03:46:16.710Z,47.27
2022-11-10T03:47:18.525Z,45.34
2022-11-10T03:48:20.375Z,46.61
2022-11-10T03:49:22.166Z,52.11
2022-11-10T03:50:23.978Z,53.22
2022-11-10T03:51:25.798Z,57.12
2022-11-10T03:52:27.595Z,57.39
2022-11-10T03:53:29.428Z,54.15
2022-11-10T03:54:31.243Z,53.58
2022-11-10T03:55:33.049Z,53.06
2022-11-10T03:56:34.845Z,52.23
2022-11-10T03:57:36.675Z,49.62
2022-11-10T03:58:38.503Z,49.38
2022-11-10T03:59:40.305Z,42.51
2022-11-10T04:00:42.396Z,43.78
2022-11-10T04:01:44.246Z,46.76
2022-11-10T04:02:46.086Z,43.36
2022-11-10T04:03:51.508Z,46.47
2022-11-10T04:04:51.537Z,41.39
2022-11-10T04:05:53.360Z,46.75
2022-11-10T04:06:55.303Z,52.02
2022-11-10T04:07:57.041Z,43.92
2022-11-10T04:08:58.911Z,43.49
2022-11-10T04:10:00.733Z,35.38
2022-11-10T04:11:02.527Z,32.30
2022-11-10T04:12:04.325Z,32.43
2022-11-10T04:13:06.129Z,29.11
2022-11-10T04:14:07.962Z,30.47
2022-11-10T04:15:09.782Z,30.69
2022-11-10T04:16:12.840Z,29.08
2022-11-10T04:17:14.623Z,28.59
2022-11-10T04:18:16.429Z,30.73
2022-11-10T04:19:18.317Z,31.62
2022-11-10T04:20:20.102Z,35.06
2022-11-10T04:21:21.890Z,33.65
2022-11-10T04:22:23.711Z,32.01
2022-11-10T04:23:25.697Z,31.35
2022-11-10T04:24:27.648Z,29.29
2022-11-10T04:25:29.475Z,31.53
2022-11-10T04:26:31.299Z,27.49
2022-11-10T04:27:33.106Z,30.79
2022-11-10T04:28:34.895Z,27.93
2022-11-10T04:29:36.772Z,28.49
2022-11-10T04:30:38.867Z,32.82
2022-11-10T04:31:40.810Z,35.43
2022-11-10T04:32:42.618Z,30.84
2022-11-10T04:33:44.404Z,29.77
2022-11-10T04:34:46.252Z,30.10
2022-11-10T04:35:48.067Z,30.88
2022-11-10T04:36:49.984Z,31.01
2022-11-10T04:37:51.762Z,34.14
2022-11-10T04:38:53.571Z,34.92
2022-11-10T04:39:55.436Z,36.51
2022-11-10T04:40:57.246Z,39.68
2022-11-10T04:42:02.774Z,34.69
2022-11-10T04:43:02.643Z,34.76
2022-11-10T04:44:04.542Z,35.24
2022-11-10T04:45:06.469Z,32.93
2022-11-10T04:46:08.839Z,31.50
2022-11-10T04:47:11.938Z,33.05
2022-11-10T04:48:14.002Z,32.04
2022-11-10T04:49:15.838Z,28.09
2022-11-10T04:50:17.686Z,29.92
2022-11-10T04:51:19.524Z,33.12
2022-11-10T04:52:21.290Z,29.36
2022-11-10T04:53:23.487Z,30.97
2022-11-10T04:54:25.408Z,31.14
2022-11-10T04:55:27.262Z,28.27
2022-11-10T04:56:29.084Z,27.65
2022-11-10T04:57:30.887Z,28.18
2022-11-10T04:58:32.677Z,26.91
2022-11-10T04:59:34.488Z,28.38
2022-11-10T05:00:36.431Z,28.38
2022-11-10T05:01:38.249Z,27.37
2022-11-10T05:02:40.141Z,28.67
2022-11-10T05:03:42.005Z,31.19
2022-11-10T05:04:43.739Z,29.12
2022-11-10T05:05:45.586Z,30.71
2022-11-10T05:06:47.595Z,28.61
2022-11-10T05:07:49.413Z,30.39
2022-11-10T05:08:51.213Z,32.92
2022-11-10T05:09:53.007Z,30.24
2022-11-10T05:10:54.853Z,33.12
2022-11-10T05:11:56.640Z,32.50
2022-11-10T05:12:58.466Z,30.59
2022-11-10T05:14:00.268Z,32.77
2022-11-10T05:15:02.050Z,33.26
2022-11-10T05:16:03.903Z,31.62
2022-11-10T05:17:05.715Z,30.25
2022-11-10T05:18:07.778Z,31.59
2022-11-10T05:19:09.570Z,33.93
2022-11-10T05:20:12.501Z,39.34
2022-11-10T05:21:14.357Z,39.65
2022-11-10T05:22:16.178Z,35.48
2022-11-10T05:23:17.984Z,36.65
2022-11-10T05:24:19.767Z,39.30
2022-11-10T05:25:21.557Z,39.87
2022-11-10T05:26:23.399Z,38.14
2022-11-10T05:27:25.216Z,38.60
2022-11-10T05:28:27.017Z,39.69
2022-11-10T05:29:28.825Z,41.93
2022-11-10T05:30:30.635Z,42.07
2022-11-10T05:31:32.493Z,40.73
2022-11-10T05:32:34.267Z,41.08
2022-11-10T05:33:36.087Z,41.85
2022-11-10T05:34:37.889Z,43.11
2022-11-10T05:35:39.678Z,45.90
2022-11-10T05:36:41.526Z,46.12
2022-11-10T05:37:43.292Z,44.09
2022-11-10T05:38:45.074Z,41.66
2022-11-10T05:39:46.886Z,40.32
2022-11-10T05:40:48.694Z,40.59
2022-11-10T05:41:50.555Z,44.06
2022-11-10T05:42:52.343Z,43.16
2022-11-10T05:43:54.148Z,37.35
2022-11-10T05:44:55.948Z,37.05
2022-11-10T05:45:57.749Z,32.81
2022-11-10T05:46:59.576Z,33.18
2022-11-10T05:48:01.481Z,37.04
2022-11-10T05:49:03.297Z,32.61
2022-11-10T05:50:05.331Z,35.25
2022-11-10T05:51:07.201Z,37.85
2022-11-10T05:52:09.109Z,35.93
2022-11-10T05:53:10.934Z,33.33
2022-11-10T05:54:12.734Z,35.59
2022-11-10T05:55:14.545Z,36.10
2022-11-10T05:56:16.973Z,32.92
2022-11-10T05:57:18.829Z,35.34
2022-11-10T05:58:20.634Z,39.13
2022-11-10T05:59:22.473Z,33.85
2022-11-10T06:00:24.871Z,31.47
2022-11-10T06:01:26.655Z,36.40
2022-11-10T06:02:28.513Z,32.12
2022-11-10T06:03:30.367Z,33.23
2022-11-10T06:04:32.302Z,35.63
2022-11-10T06:05:34.122Z,35.82
2022-11-10T06:06:36.094Z,35.30
2022-11-10T06:07:37.948Z,35.34
2022-11-10T06:08:39.807Z,32.87
2022-11-10T06:09:41.609Z,33.09
2022-11-10T06:10:43.432Z,33.48
2022-11-10T06:11:45.282Z,33.75
2022-11-10T06:12:47.146Z,29.71
2022-11-10T06:13:48.961Z,32.70
2022-11-10T06:14:51.110Z,34.67
2022-11-10T06:15:52.914Z,34.19
2022-11-10T06:16:55.020Z,29.82
2022-11-10T06:17:58.470Z,31.49
2022-11-10T06:19:00.278Z,31.41
2022-11-10T06:20:02.273Z,30.27
2022-11-10T06:21:04.082Z,33.31
2022-11-10T06:22:07.790Z,29.37
2022-11-10T06:23:09.568Z,29.64
2022-11-10T06:24:11.393Z,32.88
2022-11-10T06:25:13.229Z,47.23
2022-11-10T06:26:15.541Z,73.55
2022-11-10T06:27:17.366Z,72.46
2022-11-10T06:28:19.250Z,51.89
2022-11-10T06:29:26.450Z,37.39
2022-11-10T06:30:24.808Z,33.58
2022-11-10T06:31:26.619Z,29.68
2022-11-10T06:32:28.431Z,30.98
2022-11-10T06:33:30.285Z,33.59
2022-11-10T06:34:32.090Z,30.36
2022-11-10T06:35:34.265Z,32.07
2022-11-10T06:36:36.193Z,33.73
2022-11-10T06:37:38.000Z,32.77
2022-11-10T06:38:39.854Z,32.32
2022-11-10T06:39:41.662Z,31.06
2022-11-10T06:40:43.569Z,32.66
2022-11-10T06:41:45.391Z,35.02
2022-11-10T06:42:47.181Z,30.22
2022-11-10T06:43:49.047Z,27.09
2022-11-10T06:44:50.885Z,30.43
2022-11-10T06:45:52.670Z,29.49
2022-11-10T06:46:55.102Z,30.31
2022-11-10T06:47:56.897Z,30.21
2022-11-10T06:48:58.760Z,30.79
2022-11-10T06:50:00.582Z,31.53
2022-11-10T06:51:02.418Z,34.07
2022-11-10T06:52:04.209Z,32.26
2022-11-10T06:53:06.021Z,30.43
2022-11-10T06:54:07.861Z,30.70
2022-11-10T06:55:09.694Z,32.73
2022-11-10T06:56:12.029Z,33.96
2022-11-10T06:57:13.856Z,37.05
2022-11-10T06:58:15.709Z,40.29
2022-11-10T06:59:17.570Z,35.11
2022-11-10T07:00:19.598Z,33.03
2022-11-10T07:01:22.805Z,37.65
2022-11-10T07:02:24.773Z,36.21
2022-11-10T07:03:26.591Z,35.77
2022-11-10T07:04:28.414Z,39.14
2022-11-10T07:05:30.214Z,35.44
2022-11-10T07:06:32.542Z,33.13
2022-11-10T07:07:34.323Z,37.34
2022-11-10T07:08:36.159Z,33.36
2022-11-10T07:09:38.037Z,34.65
2022-11-10T07:10:39.859Z,37.95
2022-11-10T07:11:41.647Z,35.99
2022-11-10T07:12:43.468Z,36.83
2022-11-10T07:13:45.269Z,39.46
2022-11-10T07:14:47.123Z,41.62
2022-11-10T07:15:48.952Z,37.63
2022-11-10T07:16:50.728Z,39.55
2022-11-10T07:17:52.540Z,35.51
2022-11-10T07:18:54.357Z,39.71
2022-11-10T07:19:56.271Z,34.48
2022-11-10T07:20:58.463Z,35.01
2022-11-10T07:22:00.606Z,34.56
2022-11-10T07:23:02.408Z,33.27
2022-11-10T07:24:04.223Z,34.31
2022-11-10T07:25:06.108Z,35.09
2022-11-10T07:26:08.715Z,47.92
2022-11-10T07:27:10.537Z,39.88
2022-11-10T07:28:12.337Z,38.24
2022-11-10T07:29:14.151Z,36.01
2022-11-10T07:30:16.117Z,32.89
2022-11-10T07:31:17.925Z,32.57
2022-11-10T07:32:19.742Z,33.33
2022-11-10T07:33:21.983Z,30.58
2022-11-10T07:34:23.970Z,33.59
2022-11-10T07:35:25.828Z,30.59
2022-11-10T07:36:27.764Z,31.33
2022-11-10T07:37:29.600Z,31.51
2022-11-10T07:38:31.400Z,30.59
2022-11-10T07:39:33.228Z,31.16
2022-11-10T07:40:35.439Z,47.65
2022-11-10T07:41:37.268Z,60.21
2022-11-10T07:42:39.074Z,54.25
2022-11-10T07:43:40.898Z,51.01
2022-11-10T07:44:42.775Z,43.67
2022-11-10T07:45:44.646Z,40.09
2022-11-10T07:46:46.464Z,32.17
2022-11-10T07:47:48.256Z,35.91
2022-11-10T07:48:50.148Z,33.57
2022-11-10T07:49:51.965Z,33.91
2022-11-10T07:50:53.989Z,30.07
2022-11-10T07:51:55.821Z,26.72
2022-11-10T07:52:57.711Z,29.88
2022-11-10T07:53:59.498Z,31.15
2022-11-10T07:55:01.308Z,25.37
2022-11-10T07:56:03.167Z,26.29
2022-11-10T07:57:05.005Z,27.61
2022-11-10T07:58:06.793Z,22.86
2022-11-10T07:59:08.608Z,25.31
2022-11-10T08:00:11.133Z,22.81
2022-11-10T08:01:13.063Z,24.13
2022-11-10T08:02:14.947Z,21.26
2022-11-10T08:03:16.770Z,22.04
2022-11-10T08:04:18.581Z,18.61
2022-11-10T08:05:20.382Z,20.33
2022-11-10T08:06:22.300Z,18.13
2022-11-10T08:07:24.301Z,16.13
2022-11-10T08:08:26.358Z,18.43
2022-11-10T08:09:28.196Z,18.92
2022-11-10T08:10:30.469Z,17.93
2022-11-10T08:11:32.422Z,18.61
2022-11-10T08:12:34.294Z,16.55
2022-11-10T08:13:36.100Z,17.78
2022-11-10T08:14:37.898Z,17.84
2022-11-10T08:15:39.708Z,19.03
2022-11-10T08:16:41.779Z,18.56
2022-11-10T08:17:43.579Z,18.40
2022-11-10T08:18:45.404Z,19.15
2022-11-10T08:19:47.208Z,17.27
2022-11-10T08:20:49.054Z,18.58
2022-11-10T08:21:51.088Z,17.79
2022-11-10T08:22:52.918Z,17.87
2022-11-10T08:23:54.777Z,22.51
2022-11-10T08:24:56.914Z,18.73
2022-11-10T08:25:58.737Z,18.73
2022-11-10T08:27:00.610Z,17.54
2022-11-10T08:28:02.434Z,20.40
2022-11-10T08:29:04.229Z,17.79
2022-11-10T08:30:06.764Z,17.27
2022-11-10T08:31:08.573Z,16.92
2022-11-10T08:32:10.451Z,17.20
2022-11-10T08:33:12.304Z,20.87
2022-11-10T08:34:14.195Z,16.75
2022-11-10T08:35:16.022Z,18.03
2022-11-10T08:36:17.852Z,16.80
2022-11-10T08:37:19.720Z,17.45
2022-11-10T08:38:21.548Z,20.69
2022-11-10T08:39:38.214Z,21.55
2022-11-10T08:40:27.247Z,21.25
2022-11-10T08:41:29.407Z,20.26
2022-11-10T08:42:31.267Z,19.99
2022-11-10T08:43:33.109Z,16.79
2022-11-10T08:44:34.922Z,16.31
2022-11-10T08:45:36.788Z,18.74
2022-11-10T08:46:38.587Z,16.43
2022-11-10T08:47:40.448Z,18.79
2022-11-10T08:48:43.612Z,19.93
2022-11-10T08:49:45.476Z,21.64
2022-11-10T08:50:47.405Z,31.89
2022-11-10T08:51:49.273Z,23.09
2022-11-10T08:52:51.882Z,16.67
2022-11-10T08:53:53.704Z,15.52
2022-11-10T08:54:55.545Z,17.73
2022-11-10T08:55:57.443Z,17.75
2022-11-10T08:56:59.244Z,19.53
2022-11-10T08:58:01.116Z,18.52
2022-11-10T08:59:02.958Z,17.11
2022-11-10T09:00:04.888Z,17.54
2022-11-10T09:01:06.715Z,15.43
2022-11-10T09:02:08.547Z,19.79
2022-11-10T09:03:10.443Z,18.29
2022-11-10T09:04:12.302Z,19.85
2022-11-10T09:05:14.113Z,17.65
2022-11-10T09:06:16.182Z,14.92
2022-11-10T09:07:18.031Z,16.00
2022-11-10T09:08:19.891Z,15.29
2022-11-10T09:09:21.718Z,13.75
2022-11-10T09:10:23.693Z,17.99
2022-11-10T09:11:25.559Z,17.12
2022-11-10T09:12:27.396Z,16.76
2022-11-10T09:13:30.442Z,15.45
2022-11-10T09:14:32.853Z,17.09
2022-11-10T09:15:34.674Z,16.63
2022-11-10T09:16:36.550Z,17.57
2022-11-10T09:17:38.386Z,17.33
2022-11-10T09:18:40.218Z,15.64
2022-11-10T09:19:42.115Z,16.91
2022-11-10T09:20:44.097Z,16.79
2022-11-10T09:21:45.979Z,18.05
2022-11-10T09:22:47.806Z,19.18
2022-11-10T09:23:49.671Z,21.41
2022-11-10T09:24:51.506Z,16.97
2022-11-10T09:25:53.635Z,16.32
2022-11-10T09:26:55.568Z,19.68
2022-11-10T09:27:57.385Z,20.81
2022-11-10T09:28:59.309Z,16.71
2022-11-10T09:30:01.119Z,15.99
2022-11-10T09:31:02.962Z,17.15
2022-11-10T09:32:04.790Z,15.80
2022-11-10T09:33:06.594Z,16.71
2022-11-10T09:34:08.490Z,15.30
2022-11-10T09:35:10.336Z,16.32
2022-11-10T09:36:12.670Z,18.82
2022-11-10T09:37:14.490Z,19.39
2022-11-10T09:38:16.333Z,16.27
2022-11-10T09:39:18.234Z,16.64
2022-11-10T09:40:20.161Z,18.87
2022-11-10T09:41:22.016Z,21.65
2022-11-10T09:42:23.847Z,19.21
2022-11-10T09:43:25.689Z,16.53
2022-11-10T09:44:27.552Z,15.51
2022-11-10T09:45:29.336Z,17.65
2022-11-10T09:46:31.328Z,18.77
2022-11-10T09:47:56.105Z,20.67
2022-11-10T09:48:36.781Z,21.16
2022-11-10T09:49:38.650Z,20.71
2022-11-10T09:50:40.476Z,20.98
2022-11-10T09:51:47.947Z,19.19
2022-11-10T09:52:45.973Z,18.09
2022-11-10T09:53:47.812Z,17.32
2022-11-10T09:54:49.692Z,19.64
2022-11-10T09:55:51.474Z,18.60
2022-11-10T09:56:53.478Z,21.32
2022-11-10T09:57:55.322Z,18.37
2022-11-10T09:58:57.135Z,19.30
2022-11-10T09:59:59.034Z,20.70
2022-11-10T10:01:01.289Z,23.70
2022-11-10T10:02:03.779Z,24.21
2022-11-10T10:03:05.606Z,20.47
2022-11-10T10:04:07.439Z,20.58
2022-11-10T10:05:09.284Z,20.95
2022-11-10T10:06:11.386Z,20.05
2022-11-10T10:07:13.236Z,18.87
2022-11-10T10:08:15.109Z,24.93
2022-11-10T10:09:16.926Z,20.91
2022-11-10T10:10:18.889Z,20.00
2022-11-10T10:11:22.514Z,20.04
2022-11-10T10:12:24.378Z,23.85
2022-11-10T10:13:26.208Z,21.62
2022-11-10T10:14:28.028Z,23.95
2022-11-10T10:15:29.867Z,23.76
2022-11-10T10:16:31.691Z,23.66
2022-11-10T10:17:37.088Z,23.00
2022-11-10T10:18:37.108Z,20.65
2022-11-10T10:19:38.941Z,23.73
2022-11-10T10:20:40.877Z,23.11
2022-11-10T10:21:42.689Z,22.89
2022-11-10T10:22:44.509Z,20.11
2022-11-10T10:24:08.411Z,21.75
2022-11-10T10:24:49.971Z,21.88
2022-11-10T10:25:51.832Z,22.91
2022-11-10T10:26:53.715Z,22.87
2022-11-10T10:27:55.537Z,21.19
2022-11-10T10:28:57.352Z,22.18
2022-11-10T10:29:59.195Z,22.82
2022-11-10T10:31:01.496Z,29.89
2022-11-10T10:32:03.331Z,26.52
2022-11-10T10:33:05.161Z,20.42
2022-11-10T10:34:06.982Z,22.64
2022-11-10T10:35:08.787Z,25.31
2022-11-10T10:36:10.953Z,28.06
2022-11-10T10:37:12.775Z,28.29
2022-11-10T10:38:14.568Z,26.59
2022-11-10T10:39:16.401Z,28.81
2022-11-10T10:40:18.700Z,27.69
2022-11-10T10:41:23.861Z,25.63
2022-11-10T10:42:24.475Z,23.41
2022-11-10T10:43:26.342Z,23.44
2022-11-10T10:44:28.146Z,20.74
2022-11-10T10:45:29.996Z,21.20
2022-11-10T10:46:35.657Z,22.22
2022-11-10T10:47:35.639Z,21.36
2022-11-10T10:48:37.465Z,20.86
2022-11-10T10:49:39.273Z,21.60
2022-11-10T10:50:41.225Z,21.49
2022-11-10T10:51:43.109Z,20.93
2022-11-10T10:52:44.905Z,23.02
2022-11-10T10:53:46.731Z,22.08
2022-11-10T10:54:48.558Z,21.26
2022-11-10T10:55:50.391Z,22.42
2022-11-10T10:56:52.308Z,21.56
2022-11-10T10:57:54.124Z,24.40
2022-11-10T10:58:55.972Z,21.27
2022-11-10T10:59:57.797Z,23.07
2022-11-10T11:00:59.868Z,22.76
2022-11-10T11:02:01.681Z,22.63
2022-11-10T11:03:04.773Z,20.56
2022-11-10T11:04:06.896Z,22.25
2022-11-10T11:05:08.697Z,20.58
2022-11-10T11:06:12.314Z,22.62
2022-11-10T11:07:14.211Z,22.50
2022-11-10T11:08:16.076Z,21.73
2022-11-10T11:09:17.861Z,23.43
2022-11-10T11:10:20.124Z,22.08
2022-11-10T11:11:21.936Z,21.62
2022-11-10T11:12:23.798Z,22.33
2022-11-10T11:13:25.616Z,22.11
2022-11-10T11:14:27.502Z,20.05
2022-11-10T11:15:29.332Z,19.74
2022-11-10T11:16:31.307Z,22.41
2022-11-10T11:17:33.203Z,21.07
2022-11-10T11:18:35.089Z,23.57
2022-11-10T11:19:36.905Z,24.23
2022-11-10T11:20:38.825Z,23.31
2022-11-10T11:21:40.657Z,20.20
2022-11-10T11:22:42.509Z,18.63
2022-11-10T11:23:44.330Z,20.21
2022-11-10T11:24:46.142Z,19.32
2022-11-10T11:25:47.972Z,18.45
2022-11-10T11:26:49.899Z,16.44
2022-11-10T11:27:51.752Z,18.98
2022-11-10T11:28:53.541Z,18.97
2022-11-10T11:29:55.435Z,17.02
2022-11-10T11:30:57.329Z,20.88
2022-11-10T11:31:59.155Z,18.83
2022-11-10T11:33:01.007Z,21.07
2022-11-10T11:34:02.814Z,22.62
2022-11-10T11:35:04.639Z,21.34
2022-11-10T11:36:07.580Z,20.07
2022-11-10T11:37:12.128Z,23.03
2022-11-10T11:38:13.038Z,23.11
2022-11-10T11:39:14.758Z,24.77
2022-11-10T11:40:16.779Z,20.93
2022-11-10T11:41:18.595Z,19.15
2022-11-10T11:42:20.404Z,17.21
2022-11-10T11:43:22.239Z,20.39
2022-11-10T11:44:24.075Z,20.63
2022-11-10T11:45:25.993Z,21.42
2022-11-10T11:46:28.206Z,22.98
2022-11-10T11:47:30.062Z,21.78
2022-11-10T11:48:31.920Z,20.03
2022-11-10T11:49:33.735Z,22.52
2022-11-10T11:50:35.560Z,21.50
2022-11-10T11:51:37.418Z,18.29
2022-11-10T11:52:39.211Z,17.54
2022-11-10T11:53:41.052Z,19.64
2022-11-10T11:54:42.860Z,18.95
2022-11-10T11:55:45.793Z,18.78
2022-11-10T11:56:47.723Z,21.66
2022-11-10T11:57:49.555Z,23.65
2022-11-10T11:58:51.544Z,21.71
2022-11-10T11:59:53.462Z,17.41
2022-11-10T12:00:55.392Z,16.97
2022-11-10T12:01:57.221Z,18.68
2022-11-10T12:02:59.096Z,43.11
2022-11-10T12:04:00.907Z,32.87
2022-11-10T12:05:02.715Z,23.96
2022-11-10T12:06:04.606Z,17.88
2022-11-10T12:07:06.479Z,19.63
2022-11-10T12:08:08.349Z,14.53
2022-11-10T12:09:10.202Z,15.15
2022-11-10T12:10:13.207Z,16.23
2022-11-10T12:11:15.138Z,17.30
2022-11-10T12:12:16.968Z,15.76
2022-11-10T12:13:18.760Z,15.12
2022-11-10T12:14:20.620Z,15.08
2022-11-10T12:15:22.444Z,18.79
2022-11-10T12:16:24.325Z,17.34
2022-11-10T12:17:27.803Z,18.03
2022-11-10T12:18:34.013Z,20.38
2022-11-10T12:19:38.895Z,17.54
2022-11-10T12:20:40.847Z,17.94
2022-11-10T12:21:44.019Z,17.90
2022-11-10T12:22:45.812Z,19.39
2022-11-10T12:23:47.670Z,22.03
2022-11-10T12:24:50.972Z,28.59
2022-11-10T12:25:52.788Z,33.46
2022-11-10T12:26:56.146Z,29.61
2022-11-10T12:27:58.258Z,24.65
2022-11-10T12:29:00.082Z,18.08
2022-11-10T12:30:04.890Z,19.91
2022-11-10T12:31:11.104Z,18.81
2022-11-10T12:32:10.560Z,18.17
2022-11-10T12:33:12.394Z,20.62
2022-11-10T12:34:14.452Z,63.99
2022-11-10T12:35:18.328Z,45.14
2022-11-10T12:36:21.158Z,29.55
2022-11-10T12:37:27.634Z,21.89
2022-11-10T12:38:29.323Z,19.95
2022-11-10T12:39:31.080Z,18.79
2022-11-10T12:40:33.042Z,22.02
2022-11-10T12:41:34.857Z,29.79
2022-11-10T12:42:36.676Z,29.41
2022-11-10T12:43:42.003Z,26.15
2022-11-10T12:44:44.797Z,21.96
2022-11-10T12:45:46.909Z,21.01
2022-11-10T12:46:52.109Z,19.91
2022-11-10T12:47:54.979Z,20.66
2022-11-10T12:49:00.461Z,19.29
2022-11-10T12:50:07.643Z,21.14
2022-11-10T12:51:09.711Z,24.78
2022-11-10T12:52:20.407Z,18.91
2022-11-10T12:53:18.830Z,16.83
2022-11-10T12:54:21.814Z,23.31
2022-11-10T12:55:28.054Z,19.82
2022-11-10T12:56:28.256Z,21.68
2022-11-10T12:57:30.999Z,18.51
2022-11-10T12:58:33.380Z,19.81
2022-11-10T12:59:35.790Z,17.89
2022-11-10T13:00:38.449Z,18.61
2022-11-10T13:01:42.314Z,18.89
2022-11-10T13:02:44.318Z,22.07
2022-11-10T13:03:46.434Z,27.01
2022-11-10T13:04:49.915Z,24.99
2022-11-10T13:05:53.728Z,20.29
2022-11-10T13:06:55.836Z,19.32
2022-11-10T13:08:00.999Z,16.77
2022-11-10T13:09:02.827Z,18.23
2022-11-10T13:10:05.840Z,19.19
2022-11-10T13:11:08.818Z,18.09
2022-11-10T13:12:10.824Z,18.25
2022-11-10T13:13:12.715Z,16.87
2022-11-10T13:14:20.809Z,18.57
2022-11-10T13:15:20.649Z,16.94
2022-11-10T13:16:34.555Z,18.95
2022-11-10T13:17:40.026Z,19.20
2022-11-10T13:18:43.664Z,18.43